Time;durP1;ratioP1;P1;durP2;ratioP2;P2;SDS_P1;SDS_P2;PMS_P1;PMS_P2;Temp;Humidity;BMP_temperature;BMP_pressure;BME280_temperature;BME280_humidity;BME280_pressure;Samples;Min_cycle;Max_cycle;Signal;HPM_P1;HPM_P2
2023/01/28 00:01:44;;;;;;;23.93;14.77;;;-0.10;99.90;;;;;;5048092;28;20215;-77
2023/01/28 00:04:10;;;;;;;27.93;16.37;;;-0.10;99.90;;;;;;5048214;28;20178;-75
2023/01/28 00:06:36;;;;;;;24.67;15.00;;;-0.10;99.90;;;;;;5049890;28;20284;-78
2023/01/28 00:09:02;;;;;;;31.33;16.83;;;-0.10;99.90;;;;;;5050121;28;20429;-78
2023/01/28 00:11:28;;;;;;;27.87;16.23;;;-0.10;99.90;;;;;;5048889;28;20207;-77
2023/01/28 00:13:53;;;;;;;23.60;14.10;;;0.00;99.90;;;;;;5048038;28;20429;-78
2023/01/28 00:16:21;;;;;;;23.40;13.80;;;0.00;99.90;;;;;;5049087;28;20215;-77
2023/01/28 00:18:47;;;;;;;22.00;14.02;;;0.00;99.90;;;;;;5049053;28;20186;-77
2023/01/28 00:21:14;;;;;;;26.70;14.63;;;0.00;99.90;;;;;;5049902;28;20199;-78
2023/01/28 00:23:42;;;;;;;23.73;13.63;;;0.00;99.90;;;;;;5047436;28;20176;-78
2023/01/28 00:26:13;;;;;;;25.55;14.18;;;0.00;99.90;;;;;;5047457;28;20184;-78
2023/01/28 00:28:38;;;;;;;19.85;13.07;;;0.00;99.90;;;;;;5049043;28;20210;-77
2023/01/28 00:31:13;;;;;;;24.57;13.00;;;0.00;99.90;;;;;;5048873;28;20189;-78
2023/01/28 00:33:38;;;;;;;24.58;14.05;;;0.00;99.90;;;;;;5049176;28;20191;-77
2023/01/28 00:36:05;;;;;;;23.30;12.90;;;0.00;99.90;;;;;;5047838;28;20242;-77
2023/01/28 00:38:31;;;;;;;21.17;12.40;;;0.00;99.90;;;;;;5049407;28;20168;-77
2023/01/28 00:41:16;;;;;;;24.50;12.27;;;-0.10;99.90;;;;;;5047824;28;20184;-77
2023/01/28 00:43:43;;;;;;;21.67;12.80;;;-0.10;99.90;;;;;;5049235;28;20187;-79
2023/01/28 00:46:11;;;;;;;23.08;12.30;;;-0.20;99.90;;;;;;5049255;28;20191;-76
2023/01/28 00:48:37;;;;;;;25.88;14.75;;;-0.10;99.90;;;;;;5048924;28;20615;-77
2023/01/28 00:51:04;;;;;;;23.08;13.52;;;-0.10;99.90;;;;;;5048842;28;20230;-76
2023/01/28 00:53:30;;;;;;;19.38;12.23;;;-0.10;99.90;;;;;;5047392;28;20183;-77
2023/01/28 00:55:56;;;;;;;19.08;11.48;;;-0.10;99.90;;;;;;5048651;28;20231;-77
2023/01/28 00:58:23;;;;;;;25.02;13.60;;;-0.10;99.90;;;;;;5051503;28;20207;-77
2023/01/28 01:00:49;;;;;;;27.10;14.02;;;-0.10;99.90;;;;;;5051932;28;20684;-77
2023/01/28 01:03:15;;;;;;;23.65;12.20;;;-0.20;99.90;;;;;;5050862;28;20226;-76
2023/01/28 01:05:41;;;;;;;26.27;13.43;;;-0.10;99.90;;;;;;5052247;28;20267;-77
2023/01/28 01:08:07;;;;;;;28.27;14.70;;;-0.10;99.90;;;;;;5052097;28;20267;-77
2023/01/28 01:10:33;;;;;;;24.80;14.50;;;-0.10;99.90;;;;;;5052098;28;20263;-76
2023/01/28 01:12:59;;;;;;;24.25;13.93;;;-0.10;99.90;;;;;;5050805;28;20500;-78
2023/01/28 01:15:24;;;;;;;26.90;14.70;;;-0.10;99.90;;;;;;5051675;28;20180;-77
2023/01/28 01:17:50;;;;;;;23.60;13.77;;;-0.10;99.90;;;;;;5051107;28;20583;-78
2023/01/28 01:20:19;;;;;;;26.77;13.63;;;-0.10;99.90;;;;;;5052541;28;20184;-77
2023/01/28 01:22:45;;;;;;;25.35;14.10;;;-0.10;99.90;;;;;;5051763;28;20680;-76
2023/01/28 01:25:13;;;;;;;20.53;12.57;;;-0.10;99.90;;;;;;5051674;28;20191;-77
2023/01/28 01:27:39;;;;;;;22.17;13.80;;;-0.10;99.90;;;;;;5051903;28;20239;-77
2023/01/28 01:30:07;;;;;;;21.23;12.93;;;-0.10;99.90;;;;;;5051984;28;20604;-77
2023/01/28 01:32:36;;;;;;;25.10;13.05;;;-0.10;99.90;;;;;;5051915;28;21230;-78
2023/01/28 01:35:07;;;;;;;20.75;12.18;;;-0.10;99.90;;;;;;5051793;28;20188;-77
2023/01/28 01:37:36;;;;;;;22.10;12.30;;;0.00;99.90;;;;;;5052154;28;20215;-78
2023/01/28 01:40:03;;;;;;;21.20;12.02;;;-0.10;99.90;;;;;;5053746;28;20176;-79
2023/01/28 01:42:31;;;;;;;24.05;13.10;;;0.00;99.90;;;;;;5054096;28;20337;-79
2023/01/28 01:45:03;;;;;;;21.45;11.90;;;0.00;99.90;;;;;;5052219;28;20180;-79
2023/01/28 01:47:41;;;;;;;25.20;12.63;;;0.00;99.90;;;;;;5050625;28;20640;-78
2023/01/28 01:50:17;;;;;;;21.48;12.80;;;0.00;99.90;;;;;;5052295;28;20210;-78
2023/01/28 01:52:44;;;;;;;23.02;12.80;;;-0.10;99.90;;;;;;5050258;28;20771;-78
2023/01/28 01:55:15;;;;;;;20.27;12.45;;;0.00;99.90;;;;;;5051070;28;20566;-78
2023/01/28 01:57:43;;;;;;;17.90;11.52;;;-0.10;99.90;;;;;;5050937;28;20736;-79
2023/01/28 02:00:09;;;;;;;22.27;13.75;;;-0.10;99.90;;;;;;5050265;28;20235;-78
2023/01/28 02:02:39;;;;;;;24.60;11.98;;;-0.10;99.90;;;;;;5050381;28;20205;-77
2023/01/28 02:05:07;;;;;;;25.15;13.60;;;-0.20;99.90;;;;;;5052046;28;20271;-78
2023/01/28 02:07:33;;;;;;;22.35;11.93;;;-0.10;99.90;;;;;;5051743;28;20192;-78
2023/01/28 02:09:59;;;;;;;30.42;13.52;;;-0.10;99.90;;;;;;5050898;28;20200;-78
2023/01/28 02:12:38;;;;;;;19.27;11.47;;;-0.10;99.90;;;;;;5049526;28;20258;-77
2023/01/28 02:15:15;;;;;;;25.10;13.88;;;-0.10;99.90;;;;;;5051123;28;20172;-77
2023/01/28 02:17:41;;;;;;;25.65;12.70;;;-0.10;99.90;;;;;;5051145;28;20199;-78
2023/01/28 02:20:09;;;;;;;18.83;11.73;;;0.00;99.90;;;;;;5052257;28;20601;-79
2023/01/28 02:23:12;;;;;;;22.33;12.93;;;0.00;99.90;;;;;;5051816;28;20274;-77
2023/01/28 02:26:14;;;;;;;21.45;12.45;;;-0.10;99.90;;;;;;5050634;28;20549;-77
2023/01/28 02:29:00;;;;;;;21.63;12.40;;;0.00;99.90;;;;;;5050651;28;20629;-78
2023/01/28 02:31:40;;;;;;;21.70;11.82;;;0.00;99.90;;;;;;5050399;28;20306;-78
2023/01/28 02:34:15;;;;;;;22.70;13.73;;;0.00;99.90;;;;;;5050092;28;20187;-77
2023/01/28 02:37:06;;;;;;;20.73;10.90;;;0.00;99.90;;;;;;5050168;28;20202;-78
2023/01/28 02:39:39;;;;;;;20.90;11.60;;;0.00;99.90;;;;;;5050172;28;20164;-78
2023/01/28 02:42:18;;;;;;;21.45;12.27;;;0.00;99.90;;;;;;5050355;28;20656;-77
2023/01/28 02:44:44;;;;;;;19.80;11.50;;;-0.10;99.90;;;;;;5048552;28;20564;-77
2023/01/28 02:50:08;;;;;;;23.70;12.73;;;-0.10;99.90;;;;;;5050600;28;20708;-78
2023/01/28 02:55:43;;;;;;;23.88;12.07;;;-0.10;99.90;;;;;;5050897;28;20179;-77
2023/01/28 02:58:31;;;;;;;23.08;12.15;;;-0.10;99.90;;;;;;5050043;28;20259;-77
2023/01/28 03:01:11;;;;;;;21.70;11.90;;;0.00;99.90;;;;;;5049811;28;20233;-77
2023/01/28 03:03:56;;;;;;;17.08;10.82;;;0.00;99.90;;;;;;5048437;28;20172;-77
2023/01/28 03:06:29;;;;;;;24.10;12.43;;;-0.10;99.90;;;;;;5049915;28;20251;-78
2023/01/28 03:09:21;;;;;;;17.80;11.05;;;-0.10;99.90;;;;;;5049715;28;20176;-78
2023/01/28 03:37:34;;;;;;;22.38;11.98;;;-0.10;99.90;;;;;;5047983;28;20307;-78
2023/01/28 03:40:03;;;;;;;19.95;11.50;;;-0.10;99.90;;;;;;5048711;28;20181;-79
2023/01/28 03:42:30;;;;;;;22.05;11.93;;;-0.10;99.90;;;;;;5049437;28;20665;-77
2023/01/28 03:44:56;;;;;;;19.00;10.65;;;-0.10;99.90;;;;;;5049577;28;20194;-77
2023/01/28 03:47:24;;;;;;;19.08;10.85;;;-0.10;99.90;;;;;;5049640;28;20194;-78
2023/01/28 03:49:51;;;;;;;20.35;11.73;;;-0.10;99.90;;;;;;5048185;28;20180;-77
2023/01/28 03:52:22;;;;;;;20.35;11.27;;;0.00;99.90;;;;;;5049269;28;20242;-77
2023/01/28 03:54:48;;;;;;;20.90;10.93;;;0.10;99.90;;;;;;5049378;28;20179;-77
2023/01/28 03:57:15;;;;;;;22.60;10.65;;;0.00;99.90;;;;;;5049293;28;20214;-79
2023/01/28 03:59:41;;;;;;;19.15;10.88;;;0.00;99.90;;;;;;5048311;28;20278;-77
2023/01/28 04:02:07;;;;;;;18.13;10.70;;;0.00;99.90;;;;;;5048639;28;20341;-77
2023/01/28 04:04:33;;;;;;;19.00;11.63;;;0.00;99.90;;;;;;5047713;28;20672;-77
2023/01/28 04:06:59;;;;;;;19.93;11.33;;;0.00;99.90;;;;;;5047666;28;20270;-78
2023/01/28 04:09:25;;;;;;;19.38;11.63;;;0.00;99.90;;;;;;5031446;28;20571;-78
2023/01/28 04:11:51;;;;;;;21.30;11.17;;;0.00;99.90;;;;;;5049697;28;20203;-78
2023/01/28 04:14:17;;;;;;;21.43;10.40;;;0.00;99.90;;;;;;5049514;28;20219;-79
2023/01/28 04:16:43;;;;;;;20.75;12.00;;;-0.10;99.90;;;;;;5049808;28;20211;-78
2023/01/28 04:19:11;;;;;;;22.25;12.10;;;0.00;99.90;;;;;;5031511;28;20194;-78
2023/01/28 04:21:37;;;;;;;20.35;11.45;;;-0.10;99.90;;;;;;5049312;28;20200;-79
2023/01/28 04:24:03;;;;;;;22.83;12.80;;;-0.10;99.90;;;;;;5048143;28;20305;-78
2023/01/28 04:26:29;;;;;;;22.23;11.70;;;0.00;99.90;;;;;;5048101;28;20429;-78
2023/01/28 04:28:55;;;;;;;25.77;11.67;;;0.00;99.90;;;;;;5049619;28;20430;-77
2023/01/28 04:31:22;;;;;;;18.13;10.95;;;0.00;99.90;;;;;;5050659;28;21012;-78
2023/01/28 04:33:48;;;;;;;19.25;11.38;;;0.00;99.90;;;;;;5051892;28;20210;-77
2023/01/28 04:36:14;;;;;;;22.58;11.40;;;0.00;99.90;;;;;;5051679;28;20212;-77
2023/01/28 04:38:40;;;;;;;14.83;10.33;;;0.00;99.90;;;;;;5052915;28;20709;-77
2023/01/28 04:41:05;;;;;;;20.30;11.57;;;0.00;99.90;;;;;;5034781;28;20271;-77
2023/01/28 04:43:31;;;;;;;20.50;11.27;;;0.00;99.90;;;;;;5051299;28;20184;-78
2023/01/28 04:45:56;;;;;;;18.73;11.67;;;0.00;99.90;;;;;;5034736;28;20227;-77
2023/01/28 04:48:22;;;;;;;20.87;10.67;;;0.00;99.90;;;;;;5034477;28;20253;-77
2023/01/28 04:50:47;;;;;;;24.60;11.20;;;0.00;99.90;;;;;;5051144;28;20187;-78
2023/01/28 04:53:13;;;;;;;19.37;10.70;;;0.00;99.90;;;;;;5052669;28;20219;-77
2023/01/28 04:55:39;;;;;;;20.30;11.30;;;0.00;99.90;;;;;;5051475;28;20194;-77
2023/01/28 04:58:04;;;;;;;19.83;10.70;;;0.00;99.90;;;;;;5052753;28;20637;-77
2023/01/28 05:00:30;;;;;;;15.17;9.97;;;0.00;99.90;;;;;;5051300;28;20284;-78
2023/01/28 05:02:56;;;;;;;17.23;10.50;;;0.10;99.90;;;;;;5051240;28;20199;-76
2023/01/28 05:05:21;;;;;;;24.17;10.73;;;0.10;99.90;;;;;;5052787;28;20176;-80
2023/01/28 05:07:55;;;;;;;19.57;10.67;;;0.10;99.90;;;;;;5035165;28;20261;-77
2023/01/28 05:10:21;;;;;;;16.08;9.85;;;0.10;99.90;;;;;;5034897;28;20234;-77
2023/01/28 05:12:47;;;;;;;18.48;11.02;;;0.10;99.90;;;;;;5051204;28;20232;-78
2023/01/28 05:15:14;;;;;;;17.25;10.00;;;0.10;99.90;;;;;;5052500;28;20181;-77
2023/01/28 05:17:41;;;;;;;19.30;10.30;;;0.10;99.90;;;;;;5052990;28;20208;-77
2023/01/28 05:20:08;;;;;;;18.02;10.70;;;0.10;99.90;;;;;;5051539;28;20271;-77
2023/01/28 05:22:34;;;;;;;18.80;10.65;;;0.10;99.90;;;;;;5051634;28;20254;-78
2023/01/28 05:25:00;;;;;;;19.83;11.20;;;0.10;99.90;;;;;;5051422;28;20184;-77
2023/01/28 05:27:26;;;;;;;20.42;11.15;;;0.10;99.90;;;;;;5052751;28;20696;-77
2023/01/28 05:29:51;;;;;;;17.03;10.63;;;0.20;99.90;;;;;;5052946;28;20180;-77
2023/01/28 05:32:17;;;;;;;18.00;10.47;;;0.20;99.90;;;;;;5051222;28;20208;-77
2023/01/28 05:34:42;;;;;;;18.63;11.93;;;0.20;99.90;;;;;;5052473;28;20180;-78
2023/01/28 05:37:08;;;;;;;21.73;11.43;;;0.20;99.90;;;;;;5050588;28;20579;-78
2023/01/28 05:39:34;;;;;;;19.60;12.10;;;0.10;99.90;;;;;;5051971;28;20188;-76
2023/01/28 05:41:59;;;;;;;19.40;10.40;;;0.10;99.90;;;;;;5051755;28;20282;-78
2023/01/28 05:44:25;;;;;;;18.43;10.50;;;0.20;99.90;;;;;;5050828;28;20501;-76
2023/01/28 05:46:50;;;;;;;17.67;10.70;;;0.20;99.90;;;;;;5050067;28;20253;-77
2023/01/28 05:49:16;;;;;;;19.43;11.17;;;0.20;99.90;;;;;;5051697;28;20628;-77
2023/01/28 05:51:42;;;;;;;18.90;10.90;;;0.10;99.90;;;;;;5050060;28;20208;-76
2023/01/28 05:54:08;;;;;;;22.60;11.60;;;0.20;99.90;;;;;;5052124;28;20188;-79
2023/01/28 05:56:35;;;;;;;18.42;10.68;;;0.20;99.90;;;;;;5050766;28;20472;-81
2023/01/28 05:59:02;;;;;;;18.40;10.90;;;0.20;99.90;;;;;;5050878;28;20180;-77
2023/01/28 06:01:28;;;;;;;18.83;10.45;;;0.10;99.90;;;;;;5050605;28;20281;-78
2023/01/28 06:03:53;;;;;;;16.27;10.37;;;0.20;99.90;;;;;;5052270;28;20648;-77
2023/01/28 06:06:19;;;;;;;20.37;10.77;;;0.20;99.90;;;;;;5033740;28;20725;-76
2023/01/28 06:08:45;;;;;;;20.97;11.37;;;0.20;99.90;;;;;;5051483;28;20196;-74
2023/01/28 06:11:10;;;;;;;18.20;11.10;;;0.10;99.90;;;;;;5050982;28;20949;-74
2023/01/28 06:13:36;;;;;;;17.50;10.53;;;0.10;99.90;;;;;;5049948;28;20193;-74
2023/01/28 06:16:03;;;;;;;22.90;11.33;;;0.10;99.90;;;;;;5051178;28;20200;-76
2023/01/28 06:18:28;;;;;;;26.17;11.52;;;0.20;99.90;;;;;;5050993;28;20710;-76
2023/01/28 06:20:54;;;;;;;17.70;10.60;;;0.20;99.90;;;;;;5050919;28;20226;-76
2023/01/28 06:23:20;;;;;;;20.60;10.13;;;0.20;99.90;;;;;;5049550;28;20171;-76
2023/01/28 06:25:45;;;;;;;17.20;11.37;;;0.20;99.90;;;;;;5049690;28;20260;-77
2023/01/28 06:28:11;;;;;;;17.80;10.53;;;0.20;99.90;;;;;;5050898;28;20180;-76
2023/01/28 06:30:36;;;;;;;14.70;9.53;;;0.20;99.90;;;;;;5050958;28;20190;-76
2023/01/28 06:33:02;;;;;;;15.83;9.60;;;0.20;99.90;;;;;;5050820;28;20671;-76
2023/01/28 06:35:28;;;;;;;14.43;9.20;;;0.20;99.90;;;;;;5050732;28;20230;-78
2023/01/28 06:37:53;;;;;;;19.83;10.80;;;0.20;99.90;;;;;;5050516;28;20247;-75
2023/01/28 06:40:21;;;;;;;19.57;11.17;;;0.20;99.90;;;;;;5050452;28;20261;-75
2023/01/28 06:42:47;;;;;;;19.90;11.40;;;0.20;99.90;;;;;;5050694;28;20203;-75
2023/01/28 06:45:13;;;;;;;21.53;10.70;;;0.20;99.90;;;;;;5050376;28;20184;-75
2023/01/28 06:47:39;;;;;;;16.47;9.43;;;0.20;99.90;;;;;;5049271;28;20270;-75
2023/01/28 06:50:05;;;;;;;19.60;10.93;;;0.20;99.90;;;;;;5050283;28;20317;-74
2023/01/28 06:52:30;;;;;;;18.77;10.90;;;0.30;99.90;;;;;;5050176;28;20684;-75
2023/01/28 06:54:56;;;;;;;15.73;9.37;;;0.20;99.90;;;;;;5048196;28;20265;-75
2023/01/28 06:57:22;;;;;;;18.30;10.37;;;0.20;99.90;;;;;;5050228;28;20577;-75
2023/01/28 06:59:47;;;;;;;15.50;9.80;;;0.20;99.90;;;;;;5048692;28;20196;-75
2023/01/28 07:02:13;;;;;;;17.07;9.80;;;0.10;99.90;;;;;;5050506;28;20206;-75
2023/01/28 07:04:38;;;;;;;15.73;9.40;;;0.10;99.90;;;;;;5049761;28;20181;-75
2023/01/28 07:07:04;;;;;;;16.37;10.03;;;0.10;99.90;;;;;;5049939;28;20198;-75
2023/01/28 07:09:29;;;;;;;17.23;10.50;;;0.20;99.90;;;;;;5049772;28;20184;-75
2023/01/28 07:11:55;;;;;;;23.47;11.73;;;0.20;99.90;;;;;;5049737;28;20203;-75
2023/01/28 07:14:20;;;;;;;23.27;12.00;;;0.10;99.90;;;;;;5049745;28;20207;-75
2023/01/28 07:16:46;;;;;;;16.30;10.30;;;0.20;99.90;;;;;;5047923;28;20591;-75
2023/01/28 07:19:12;;;;;;;15.47;10.07;;;0.20;99.90;;;;;;5048231;28;20215;-75
2023/01/28 07:21:37;;;;;;;19.20;10.67;;;0.20;99.90;;;;;;5047934;28;20196;-75
2023/01/28 07:24:04;;;;;;;15.20;9.07;;;0.20;99.90;;;;;;5049397;28;20194;-75
2023/01/28 07:26:30;;;;;;;15.68;10.00;;;0.30;99.90;;;;;;5049317;28;20199;-75
2023/01/28 07:28:55;;;;;;;15.02;9.23;;;0.30;99.90;;;;;;5048043;28;20266;-75
2023/01/28 07:31:21;;;;;;;18.83;11.50;;;0.30;99.90;;;;;;5049572;28;20210;-75
2023/01/28 07:33:47;;;;;;;24.13;13.10;;;0.30;99.90;;;;;;5049521;28;20188;-75
2023/01/28 07:36:12;;;;;;;23.93;14.10;;;0.30;99.90;;;;;;5049543;28;20207;-75
2023/01/28 07:38:38;;;;;;;26.37;13.33;;;0.30;99.90;;;;;;5049619;28;20188;-75
2023/01/28 07:41:04;;;;;;;27.67;13.50;;;0.40;99.90;;;;;;5049543;28;20180;-75
2023/01/28 07:43:30;;;;;;;27.37;13.87;;;0.40;99.90;;;;;;5049352;28;20264;-75
2023/01/28 07:45:58;;;;;;;21.10;13.03;;;0.40;99.90;;;;;;5048007;28;20591;-75
2023/01/28 07:48:24;;;;;;;22.70;13.07;;;0.40;99.90;;;;;;5049569;28;20430;-75
2023/01/28 07:50:50;;;;;;;16.93;10.67;;;0.40;99.90;;;;;;5048089;28;20188;-75
2023/01/28 07:53:16;;;;;;;20.38;12.25;;;0.40;99.90;;;;;;5049602;28;20200;-75
2023/01/28 07:55:42;;;;;;;19.13;10.37;;;0.40;99.90;;;;;;5049397;28;20283;-75
2023/01/28 07:58:10;;;;;;;19.37;10.63;;;0.40;99.90;;;;;;5049000;28;20434;-75
2023/01/28 08:00:36;;;;;;;15.02;9.55;;;0.50;99.90;;;;;;5047935;28;20576;-75
2023/01/28 08:03:10;;;;;;;21.92;11.45;;;0.50;99.90;;;;;;5048245;28;20277;-75
2023/01/28 08:05:43;;;;;;;16.20;9.85;;;0.50;99.90;;;;;;5046842;28;20806;-75
2023/01/28 08:08:10;;;;;;;16.17;10.60;;;0.50;99.90;;;;;;5052326;28;20561;-75
2023/01/28 08:10:36;;;;;;;16.08;9.57;;;0.60;99.90;;;;;;5052089;28;20176;-75
2023/01/28 08:13:02;;;;;;;14.55;9.75;;;0.50;99.90;;;;;;5052381;28;20865;-75
2023/01/28 08:15:28;;;;;;;15.77;10.43;;;0.50;99.90;;;;;;5052483;28;20176;-76
2023/01/28 08:17:55;;;;;;;16.80;9.85;;;0.50;99.90;;;;;;5052346;28;20778;-76
2023/01/28 08:20:22;;;;;;;13.35;10.02;;;0.60;99.90;;;;;;5050469;28;20187;-75
2023/01/28 08:22:47;;;;;;;18.88;11.23;;;0.60;99.90;;;;;;5052263;28;20613;-75
2023/01/28 08:25:13;;;;;;;19.63;12.37;;;0.60;99.90;;;;;;5051662;28;20184;-75
2023/01/28 08:27:39;;;;;;;22.03;12.60;;;0.70;99.90;;;;;;5051988;28;20184;-75
2023/01/28 08:30:05;;;;;;;17.13;11.03;;;0.70;99.90;;;;;;5051953;28;20187;-75
2023/01/28 08:32:31;;;;;;;17.83;11.07;;;0.70;99.90;;;;;;5052003;28;20208;-76
2023/01/28 08:34:56;;;;;;;17.33;11.30;;;0.60;99.90;;;;;;5051687;28;20235;-75
2023/01/28 08:37:22;;;;;;;17.80;11.07;;;0.70;99.90;;;;;;5051891;28;20489;-75
2023/01/28 08:39:48;;;;;;;17.42;10.32;;;0.70;99.90;;;;;;5050427;28;20187;-75
2023/01/28 08:42:14;;;;;;;20.10;12.33;;;0.80;99.90;;;;;;5051632;28;20207;-75
2023/01/28 08:44:39;;;;;;;15.87;10.17;;;0.80;99.90;;;;;;5051819;28;20417;-75
2023/01/28 08:47:05;;;;;;;21.23;11.73;;;0.80;99.90;;;;;;5051911;28;20594;-75
2023/01/28 08:49:31;;;;;;;17.80;11.53;;;0.90;99.90;;;;;;5051876;28;20188;-75
2023/01/28 08:51:56;;;;;;;20.20;11.87;;;0.90;99.90;;;;;;5051650;28;20208;-75
2023/01/28 08:54:22;;;;;;;18.87;11.60;;;0.90;99.90;;;;;;5051445;28;20175;-75
2023/01/28 08:56:48;;;;;;;19.63;11.73;;;0.90;99.90;;;;;;5051772;28;20205;-75
2023/01/28 08:59:14;;;;;;;19.33;11.00;;;0.90;99.90;;;;;;5051095;28;20173;-76
2023/01/28 09:01:40;;;;;;;17.13;10.48;;;1.00;99.90;;;;;;5051581;28;20438;-76
2023/01/28 09:04:05;;;;;;;15.40;10.70;;;1.00;99.90;;;;;;5051570;28;20199;-75
2023/01/28 09:06:31;;;;;;;17.27;10.50;;;1.00;99.90;;;;;;5051502;28;20184;-76
2023/01/28 09:08:58;;;;;;;14.23;9.57;;;1.00;99.90;;;;;;5050012;28;20185;-76
2023/01/28 09:11:24;;;;;;;15.50;9.52;;;1.10;99.90;;;;;;5051498;28;20443;-76
2023/01/28 09:13:50;;;;;;;17.70;10.40;;;1.00;99.90;;;;;;5051377;28;20190;-76
2023/01/28 09:16:15;;;;;;;15.50;11.20;;;1.00;99.90;;;;;;5050227;28;20453;-76
2023/01/28 09:18:41;;;;;;;14.90;10.17;;;1.00;99.90;;;;;;5032244;28;20188;-74
2023/01/28 09:21:07;;;;;;;14.70;9.20;;;1.00;99.90;;;;;;5051519;28;20189;-75
2023/01/28 09:23:35;;;;;;;16.63;10.25;;;1.00;99.90;;;;;;5050212;28;20266;-75
2023/01/28 09:26:01;;;;;;;14.38;10.27;;;1.10;99.90;;;;;;5051678;28;20176;-76
2023/01/28 09:28:26;;;;;;;15.95;9.90;;;1.10;99.90;;;;;;5051848;28;20225;-76
2023/01/28 09:30:52;;;;;;;15.80;10.23;;;1.10;99.90;;;;;;5050218;28;20190;-76
2023/01/28 09:33:17;;;;;;;15.30;10.50;;;1.10;99.90;;;;;;5051311;28;20188;-76
2023/01/28 09:35:43;;;;;;;14.77;10.77;;;1.10;99.90;;;;;;5051380;28;20712;-75
2023/01/28 09:38:09;;;;;;;19.40;11.80;;;1.10;99.90;;;;;;5049928;28;20582;-76
2023/01/28 09:40:42;;;;;;;20.13;10.90;;;1.20;99.90;;;;;;5051199;28;20209;-76
2023/01/28 09:43:40;;;;;;;15.07;9.95;;;1.10;99.90;;;;;;5049893;28;20209;-76
2023/01/28 09:46:09;;;;;;;17.25;10.55;;;1.10;99.90;;;;;;5033750;28;20192;-76
2023/01/28 09:48:40;;;;;;;19.20;11.80;;;1.20;99.90;;;;;;5051359;28;20189;-76
2023/01/28 09:51:10;;;;;;;17.55;10.60;;;1.20;99.90;;;;;;5051127;28;20231;-76
2023/01/28 09:53:42;;;;;;;17.30;10.52;;;1.20;99.90;;;;;;5051699;28;20258;-75
2023/01/28 09:56:15;;;;;;;18.30;11.07;;;1.20;99.90;;;;;;5051855;28;20215;-76
2023/01/28 09:58:42;;;;;;;20.08;11.80;;;1.20;99.90;;;;;;5051837;28;20233;-76
2023/01/28 10:01:49;;;;;;;21.65;11.98;;;1.30;99.90;;;;;;5051548;28;20238;-76
2023/01/28 10:04:27;;;;;;;24.88;14.77;;;1.30;99.90;;;;;;5051470;28;20184;-76
2023/01/28 10:07:14;;;;;;;14.93;10.68;;;1.30;99.90;;;;;;5051341;28;20172;-76
2023/01/28 10:09:58;;;;;;;16.20;11.20;;;1.30;99.90;;;;;;5051210;28;20661;-76
2023/01/28 10:12:40;;;;;;;16.42;11.27;;;1.30;99.90;;;;;;5050950;28;20773;-76
2023/01/28 10:15:31;;;;;;;18.02;10.90;;;1.40;99.90;;;;;;5051206;28;20173;-75
2023/01/28 10:18:10;;;;;;;19.85;12.65;;;1.40;99.90;;;;;;5049523;28;20239;-75
2023/01/28 10:20:43;;;;;;;17.90;11.65;;;1.40;99.90;;;;;;5050906;28;20665;-75
2023/01/28 10:23:23;;;;;;;17.40;11.50;;;1.40;99.90;;;;;;5049362;28;20220;-75
2023/01/28 10:25:49;;;;;;;16.13;11.55;;;1.30;99.90;;;;;;5050775;28;20184;-75
2023/01/28 10:28:22;;;;;;;19.33;13.53;;;1.40;99.90;;;;;;5050966;28;20177;-76
2023/01/28 10:30:48;;;;;;;17.05;12.50;;;1.40;99.90;;;;;;5050863;28;20199;-75
2023/01/28 10:33:19;;;;;;;15.47;10.20;;;1.40;99.90;;;;;;5050352;28;20235;-75
2023/01/28 10:35:46;;;;;;;15.85;10.50;;;1.50;99.90;;;;;;5050499;28;20620;-78
2023/01/28 10:38:20;;;;;;;18.48;11.52;;;1.50;99.90;;;;;;5052516;28;20184;-78
2023/01/28 10:40:49;;;;;;;26.77;13.00;;;1.50;99.90;;;;;;5050425;28;20168;-77
2023/01/28 10:43:31;;;;;;;16.83;11.68;;;1.50;99.90;;;;;;5050416;28;20207;-75
2023/01/28 10:46:20;;;;;;;19.10;12.85;;;1.60;99.90;;;;;;5050448;28;20166;-74
2023/01/28 10:48:55;;;;;;;17.98;11.32;;;1.70;99.90;;;;;;5048015;28;20184;-74
2023/01/28 10:51:50;;;;;;;15.95;10.40;;;1.80;99.90;;;;;;5049676;28;20278;-75
2023/01/28 10:54:22;;;;;;;17.52;11.73;;;2.00;99.90;;;;;;5031445;28;20185;-76
2023/01/28 10:56:53;;;;;;;16.13;11.48;;;2.10;99.90;;;;;;5049505;28;20254;-75
2023/01/28 10:59:21;;;;;;;16.75;11.80;;;2.20;99.90;;;;;;5049804;28;20187;-77
2023/01/28 11:01:50;;;;;;;16.55;11.00;;;2.20;99.90;;;;;;5032846;28;20239;-79
2023/01/28 11:04:21;;;;;;;18.88;11.88;;;2.30;99.90;;;;;;5050817;28;20181;-76
2023/01/28 11:07:01;;;;;;;17.70;11.55;;;2.40;99.90;;;;;;5048327;28;20943;-80
2023/01/28 11:09:33;;;;;;;17.77;11.32;;;2.40;99.90;;;;;;5049625;28;20189;-77
2023/01/28 11:12:13;;;;;;;16.92;10.68;;;2.60;99.90;;;;;;5048126;28;20203;-77
2023/01/28 11:14:50;;;;;;;16.95;10.95;;;2.60;99.90;;;;;;5047844;28;20266;-76
2023/01/28 11:17:18;;;;;;;21.63;11.55;;;2.50;99.90;;;;;;5049494;28;20225;-77
2023/01/28 11:19:44;;;;;;;18.27;11.50;;;2.50;99.90;;;;;;5049124;28;20196;-76
2023/01/28 11:22:35;;;;;;;20.33;12.73;;;2.50;99.90;;;;;;5048922;28;20212;-77
2023/01/28 11:25:03;;;;;;;18.10;11.93;;;2.40;99.90;;;;;;5049228;28;20173;-76
2023/01/28 11:27:31;;;;;;;21.75;13.23;;;2.30;99.90;;;;;;5047847;28;20174;-75
2023/01/28 11:30:02;;;;;;;22.98;14.63;;;2.30;99.90;;;;;;5049209;28;20724;-75
2023/01/28 11:32:29;;;;;;;15.88;10.60;;;2.30;99.90;;;;;;5047636;28;20211;-77
2023/01/28 11:34:56;;;;;;;14.90;10.48;;;2.10;99.90;;;;;;5048749;28;20186;-75
2023/01/28 11:37:24;;;;;;;15.77;11.02;;;2.10;99.90;;;;;;5048480;28;20348;-74
2023/01/28 11:40:19;;;;;;;12.38;9.05;;;2.10;99.90;;;;;;5048702;28;20180;-74
2023/01/28 11:42:45;;;;;;;12.60;8.52;;;2.00;99.90;;;;;;5047872;28;20228;-75
2023/01/28 11:45:26;;;;;;;14.18;9.10;;;2.00;99.90;;;;;;5046858;28;20200;-75
2023/01/28 11:48:33;;;;;;;16.05;9.85;;;2.00;99.90;;;;;;5048535;28;20619;-75
2023/01/28 11:51:06;;;;;;;14.38;9.68;;;1.90;99.90;;;;;;5049100;28;20207;-75
2023/01/28 11:53:59;;;;;;;16.40;10.45;;;1.90;99.90;;;;;;5048911;28;20189;-75
2023/01/28 11:57:18;;;;;;;16.83;9.77;;;2.00;99.90;;;;;;5048926;28;20851;-75
2023/01/28 11:59:49;;;;;;;15.60;10.35;;;1.90;99.90;;;;;;5006495;28;20281;-76
2023/01/28 12:02:59;;;;;;;17.23;10.85;;;2.00;99.90;;;;;;5006576;28;20790;-75
2023/01/28 12:05:51;;;;;;;15.63;11.43;;;2.00;99.90;;;;;;5026510;28;20199;-75
2023/01/28 12:08:19;;;;;;;21.92;13.32;;;2.00;99.90;;;;;;5048823;28;20288;-75
2023/01/28 12:10:56;;;;;;;29.10;17.75;;;1.90;99.90;;;;;;5048907;28;20180;-75
2023/01/28 12:13:25;;;;;;;18.58;11.82;;;2.00;99.90;;;;;;5048878;28;20263;-77
2023/01/28 12:16:16;;;;;;;23.13;13.18;;;1.90;99.90;;;;;;5048527;28;20266;-75
2023/01/28 12:19:11;;;;;;;22.20;14.57;;;1.80;99.90;;;;;;5046907;28;20206;-74
2023/01/28 12:21:59;;;;;;;25.55;15.45;;;1.80;99.90;;;;;;5046825;28;20209;-74
2023/01/28 12:25:05;;;;;;;18.95;12.30;;;1.80;99.90;;;;;;5046779;28;20602;-75
2023/01/28 12:27:49;;;;;;;20.42;12.75;;;1.80;99.90;;;;;;4998031;28;20981;-75
2023/01/28 12:30:18;;;;;;;18.52;12.05;;;1.70;99.90;;;;;;5048213;28;20187;-75
2023/01/28 12:33:18;;;;;;;20.13;12.43;;;1.70;99.90;;;;;;5047951;28;20200;-74
2023/01/28 12:36:01;;;;;;;16.80;11.65;;;1.70;99.90;;;;;;5046607;28;20279;-74
2023/01/28 12:38:29;;;;;;;22.45;14.30;;;1.70;99.90;;;;;;5048090;28;20180;-74
2023/01/28 12:41:01;;;;;;;20.65;13.30;;;1.70;99.90;;;;;;5046561;28;20189;-74
2023/01/28 12:43:46;;;;;;;29.65;14.05;;;1.70;99.90;;;;;;5048124;28;20177;-74
2023/01/28 12:46:24;;;;;;;19.90;11.82;;;1.70;99.90;;;;;;5047743;28;20259;-74
2023/01/28 12:48:58;;;;;;;18.83;12.10;;;1.60;99.90;;;;;;5047776;28;20177;-74
2023/01/28 12:51:29;;;;;;;24.35;13.60;;;1.60;99.90;;;;;;5047593;28;20215;-74
2023/01/28 12:54:10;;;;;;;22.00;12.90;;;1.60;99.90;;;;;;5051099;28;20272;-79
2023/01/28 12:56:41;;;;;;;21.42;12.80;;;1.60;99.90;;;;;;5051283;28;20212;-74
2023/01/28 12:59:19;;;;;;;23.00;13.07;;;1.60;99.90;;;;;;5051077;28;20723;-74
2023/01/28 13:01:54;;;;;;;18.40;11.30;;;1.60;99.90;;;;;;5049427;28;20211;-74
2023/01/28 13:04:35;;;;;;;23.23;12.05;;;1.70;99.90;;;;;;5050845;28;20274;-75
2023/01/28 13:07:16;;;;;;;20.17;12.20;;;1.60;99.90;;;;;;5049405;28;20192;-74
2023/01/28 13:10:08;;;;;;;19.52;12.38;;;1.70;99.90;;;;;;5050860;28;20190;-76
2023/01/28 13:12:37;;;;;;;20.67;12.57;;;1.70;99.90;;;;;;5049203;28;20241;-73
2023/01/28 13:15:05;;;;;;;22.63;13.18;;;1.70;99.90;;;;;;5032275;28;20187;-73
2023/01/28 13:17:31;;;;;;;28.42;16.38;;;1.80;99.90;;;;;;5048711;28;20222;-73
2023/01/28 13:19:58;;;;;;;22.25;12.25;;;2.00;99.90;;;;;;5050137;28;20809;-73
2023/01/28 13:22:30;;;;;;;21.38;12.20;;;2.00;99.90;;;;;;5050048;28;20308;-73
2023/01/28 13:24:56;;;;;;;21.85;12.35;;;2.20;99.90;;;;;;5049993;28;20752;-73